createdAt,value
2018-12-24T00:00:48.146Z,42.78
2018-12-24T00:01:48.129Z,41.93
2018-12-24T00:02:48.106Z,41.64
2018-12-24T00:03:48.090Z,41.64
2018-12-24T00:04:48.073Z,43.91
2018-12-24T00:05:48.058Z,46.47
2018-12-24T00:06:48.039Z,45.05
2018-12-24T00:07:48.023Z,43.82
2018-12-24T00:08:47.762Z,42.4
2018-12-24T00:09:47.991Z,41.08
2018-12-24T00:10:47.971Z,39.84
2018-12-24T00:11:47.959Z,38.33
2018-12-24T00:12:47.938Z,37.48
2018-12-24T00:13:47.920Z,37.29
2018-12-24T00:14:47.907Z,35.96
2018-12-24T00:15:47.885Z,35.39
2018-12-24T00:16:47.868Z,34.17
2018-12-24T00:17:47.854Z,33.31
2018-12-24T00:18:47.841Z,33.69
2018-12-24T00:19:47.817Z,33.41
2018-12-24T00:20:47.802Z,32.93
2018-12-24T00:21:47.785Z,33.69
2018-12-24T00:22:47.763Z,32.37
2018-12-24T00:23:47.498Z,31.14
2018-12-24T00:24:47.731Z,28.11
2018-12-24T00:25:47.715Z,25.82
2018-12-24T00:26:47.694Z,24.03
2018-12-24T00:27:47.680Z,22.89
2018-12-24T00:28:47.663Z,21.77
2018-12-24T00:29:47.643Z,21.11
2018-12-24T00:30:47.624Z,20.72
2018-12-24T00:31:47.609Z,20.35
2018-12-24T00:32:47.590Z,19.96
2018-12-24T00:33:47.571Z,19.68
2018-12-24T00:34:47.559Z,19.58
2018-12-24T00:35:47.541Z,20.43
2018-12-24T00:36:47.523Z,21.09
2018-12-24T00:37:47.506Z,20.81
2018-12-24T00:38:47.490Z,19.96
2018-12-24T00:39:47.470Z,20.34
2018-12-24T00:40:47.455Z,20.9
2018-12-24T00:41:47.437Z,21
2018-12-24T00:42:47.422Z,20.06
2018-12-24T00:43:47.398Z,20.43
2018-12-24T00:44:47.384Z,19.87
2018-12-24T00:45:47.364Z,19.68
2018-12-24T00:46:47.349Z,19.39
2018-12-24T00:47:47.328Z,18.63
2018-12-24T00:48:47.316Z,17.69
2018-12-24T00:49:47.317Z,17.5
2018-12-24T00:50:47.280Z,16.74
2018-12-24T00:51:47.257Z,16.55
2018-12-24T00:52:47.238Z,16.08
2018-12-24T00:53:47.224Z,15.42
2018-12-24T00:54:47.208Z,15.14
2018-12-24T00:55:47.187Z,14.57
2018-12-24T00:56:47.170Z,13.9
2018-12-24T00:57:47.165Z,13.34
2018-12-24T00:58:47.133Z,12.96
2018-12-24T00:59:47.116Z,12.2
2018-12-24T01:00:47.097Z,12.2
2018-12-24T01:01:48.876Z,11.63
2018-12-24T01:02:47.074Z,11.35
2018-12-24T01:03:47.047Z,11.25
2018-12-24T01:04:47.026Z,11.07
2018-12-24T01:05:47.009Z,10.69
2018-12-24T01:06:46.987Z,10.03
2018-12-24T01:07:46.981Z,9.55
2018-12-24T01:08:46.954Z,9.65
2018-12-24T01:09:46.938Z,9.27
2018-12-24T01:10:46.669Z,9.36
2018-12-24T01:11:46.899Z,8.89
2018-12-24T01:12:46.883Z,8.51
2018-12-24T01:13:46.861Z,8.51
2018-12-24T01:14:46.845Z,8.51
2018-12-24T01:15:46.826Z,8.14
2018-12-24T01:16:46.810Z,8.14
2018-12-24T01:17:46.791Z,8.14
2018-12-24T01:18:46.775Z,7.95
2018-12-24T01:19:46.760Z,7.57
2018-12-24T01:20:46.736Z,7.66
2018-12-24T01:21:46.720Z,7.09
2018-12-24T01:22:46.701Z,7.19
2018-12-24T01:23:46.687Z,7
2018-12-24T01:24:46.669Z,6.52
2018-12-24T01:25:46.647Z,6.62
2018-12-24T01:26:46.628Z,7
2018-12-24T01:27:46.617Z,6.81
2018-12-24T01:28:46.591Z,6.62
2018-12-24T01:29:46.573Z,6.71
2018-12-24T01:30:46.561Z,6.52
2018-12-24T01:31:46.537Z,6.62
2018-12-24T01:32:46.529Z,6.71
2018-12-24T01:33:46.514Z,6.62
2018-12-24T01:34:46.485Z,6.9
2018-12-24T01:35:46.466Z,7.19
2018-12-24T01:36:46.452Z,7.28
2018-12-24T01:37:46.184Z,7.09
2018-12-24T01:38:46.164Z,7.28
2018-12-24T01:39:46.410Z,7.19
2018-12-24T01:40:46.377Z,7.09
2018-12-24T01:41:46.359Z,7.19
2018-12-24T01:42:46.340Z,7.28
2018-12-24T01:43:46.325Z,6.81
2018-12-24T01:44:46.304Z,6.71
2018-12-24T01:45:46.289Z,6.62
2018-12-24T01:46:46.268Z,6.71
2018-12-24T01:47:46.254Z,6.52
2018-12-24T01:48:46.235Z,6.43
2018-12-24T01:49:46.215Z,6.24
2018-12-24T01:50:46.199Z,6.24
2018-12-24T01:51:46.179Z,5.87
2018-12-24T01:52:46.162Z,5.96
2018-12-24T01:53:45.894Z,5.87
2018-12-24T01:54:45.879Z,5.87
2018-12-24T01:55:45.861Z,5.87
2018-12-24T01:56:46.089Z,5.77
2018-12-24T01:57:46.071Z,5.87
2018-12-24T01:58:46.053Z,6.05
2018-12-24T01:59:46.035Z,6.15
2018-12-24T02:00:46.016Z,6.43
2018-12-24T02:01:45.998Z,6.71
2018-12-24T02:02:45.985Z,7.28
2018-12-24T02:03:45.963Z,6.81
2018-12-24T02:04:45.951Z,7
2018-12-24T02:05:45.926Z,6.43
2018-12-24T02:06:45.916Z,6.62
2018-12-24T02:07:45.742Z,6.71
2018-12-24T02:08:45.873Z,7.38
2018-12-24T02:09:45.607Z,7.76
2018-12-24T02:10:45.840Z,7.76
2018-12-24T02:11:45.815Z,7.28
2018-12-24T02:12:45.801Z,7.09
2018-12-24T02:13:45.786Z,7.09
2018-12-24T02:14:45.763Z,7.28
2018-12-24T02:15:45.747Z,7.37
2018-12-24T02:16:45.727Z,7.18
2018-12-24T02:17:45.708Z,7.37
2018-12-24T02:18:45.794Z,6.99
2018-12-24T02:19:45.687Z,6.81
2018-12-24T02:20:45.656Z,6.62
2018-12-24T02:21:45.636Z,6.52
2018-12-24T02:22:45.618Z,6.52
2018-12-24T02:23:45.608Z,5.86
2018-12-24T02:24:45.579Z,5.96
2018-12-24T02:25:45.562Z,5.67
2018-12-24T02:26:45.542Z,5.29
2018-12-24T02:27:45.524Z,5.96
2018-12-24T02:28:45.505Z,5.86
2018-12-24T02:29:45.486Z,5.67
2018-12-24T02:30:45.470Z,5.86
2018-12-24T02:31:45.466Z,5.29
2018-12-24T02:32:45.433Z,5.39
2018-12-24T02:33:45.414Z,5.2
2018-12-24T02:34:45.399Z,5.29
2018-12-24T02:35:45.138Z,5.39
2018-12-24T02:36:45.361Z,5.58
2018-12-24T02:37:45.347Z,5.3
2018-12-24T02:38:45.321Z,5.48
2018-12-24T02:39:45.304Z,5.39
2018-12-24T02:40:45.295Z,5.39
2018-12-24T02:41:45.272Z,5.67
2018-12-24T02:42:54.652Z,5.86
2018-12-24T02:43:45.233Z,6.14
2018-12-24T02:44:45.214Z,6.43
2018-12-24T02:45:45.198Z,6.33
2018-12-24T02:46:45.177Z,6.33
2018-12-24T02:47:45.161Z,6.43
2018-12-24T02:48:45.141Z,6.24
2018-12-24T02:49:45.123Z,5.86
2018-12-24T02:50:45.110Z,5.86
2018-12-24T02:51:45.085Z,6.05
2018-12-24T02:52:45.066Z,5.96
2018-12-24T02:53:45.053Z,5.58
2018-12-24T02:54:45.034Z,5.39
2018-12-24T02:55:45.010Z,5.29
2018-12-24T02:56:44.997Z,5.48
2018-12-24T02:57:44.973Z,5.58
2018-12-24T02:58:44.967Z,5.58
2018-12-24T02:59:44.947Z,6.05
2018-12-24T03:00:44.920Z,5.67
2018-12-24T03:01:44.902Z,5.77
2018-12-24T03:02:44.633Z,5.96
2018-12-24T03:03:44.864Z,5.67
2018-12-24T03:04:44.845Z,5.48
2018-12-24T03:05:44.827Z,5.86
2018-12-24T03:06:44.811Z,6.05
2018-12-24T03:07:44.793Z,6.14
2018-12-24T03:08:44.772Z,6.24
2018-12-24T03:09:44.758Z,6.33
2018-12-24T03:10:44.741Z,6.62
2018-12-24T03:11:44.719Z,6.71
2018-12-24T03:12:44.718Z,6.99
2018-12-24T03:13:44.438Z,7.18
2018-12-24T03:14:44.662Z,7.18
2018-12-24T03:15:44.650Z,7.18
2018-12-24T03:16:44.628Z,7.28
2018-12-24T03:17:44.611Z,7.09
2018-12-24T03:18:44.595Z,7.09
2018-12-24T03:19:44.573Z,7.37
2018-12-24T03:20:44.561Z,7.18
2018-12-24T03:21:44.537Z,6.99
2018-12-24T03:22:44.518Z,6.9
2018-12-24T03:23:44.501Z,6.71
2018-12-24T03:24:44.482Z,6.43
2018-12-24T03:25:44.490Z,6.9
2018-12-24T03:26:44.449Z,6.81
2018-12-24T03:27:44.428Z,7
2018-12-24T03:28:44.419Z,6.9
2018-12-24T03:29:44.395Z,7.09
2018-12-24T03:30:44.403Z,7.18
2018-12-24T03:31:44.399Z,7.09
2018-12-24T03:32:44.352Z,6.99
2018-12-24T03:33:44.324Z,6.9
2018-12-24T03:34:44.303Z,7.95
2018-12-24T03:35:44.303Z,8.14
2018-12-24T03:36:44.266Z,8.89
2018-12-24T03:37:44.253Z,9.46
2018-12-24T03:38:43.989Z,8.98
2018-12-24T03:39:44.210Z,8.89
2018-12-24T03:40:44.190Z,8.41
2018-12-24T03:41:44.174Z,8.79
2018-12-24T03:42:44.153Z,8.32
2018-12-24T03:43:44.136Z,8.32
2018-12-24T03:44:44.117Z,7.94
2018-12-24T03:45:43.856Z,8.14
2018-12-24T03:46:44.080Z,8.22
2018-12-24T03:47:44.091Z,7.85
2018-12-24T03:48:44.043Z,8.14
2018-12-24T03:49:44.026Z,7.65
2018-12-24T03:50:44.007Z,7.75
2018-12-24T03:51:43.993Z,7.94
2018-12-24T03:52:43.969Z,8.13
2018-12-24T03:53:43.952Z,7.76
2018-12-24T03:54:43.936Z,8.22
2018-12-24T03:55:43.916Z,7.95
2018-12-24T03:56:43.903Z,8.04
2018-12-24T03:57:43.884Z,8.51
2018-12-24T03:58:43.863Z,8.7
2018-12-24T03:59:43.843Z,8.79
2018-12-24T04:00:43.832Z,9.08
2018-12-24T04:01:43.808Z,8.79
2018-12-24T04:02:43.798Z,9.08
2018-12-24T04:03:43.785Z,9.27
2018-12-24T04:04:43.507Z,9.36
2018-12-24T04:05:43.737Z,9.55
2018-12-24T04:06:43.722Z,9.45
2018-12-24T04:07:43.708Z,9.36
2018-12-24T04:08:43.689Z,9.55
2018-12-24T04:09:43.662Z,9.27
2018-12-24T04:10:43.643Z,9.36
2018-12-24T04:11:43.626Z,9.36
2018-12-24T04:12:43.608Z,8.89
2018-12-24T04:13:43.591Z,9.17
2018-12-24T04:14:43.573Z,9.17
2018-12-24T04:15:43.559Z,9.45
2018-12-24T04:16:43.536Z,9.08
2018-12-24T04:17:43.529Z,8.98
2018-12-24T04:18:43.505Z,9.55
2018-12-24T04:19:43.479Z,9.36
2018-12-24T04:20:43.215Z,9.36
2018-12-24T04:21:43.198Z,9.36
2018-12-24T04:22:43.425Z,10.03
2018-12-24T04:23:43.408Z,9.17
2018-12-24T04:24:43.394Z,9.74
2018-12-24T04:25:43.435Z,10.21
2018-12-24T04:26:43.353Z,10.11
2018-12-24T04:27:44.476Z,10.21
2018-12-24T04:28:43.319Z,10.21
2018-12-24T04:29:43.299Z,10.21
2018-12-24T04:30:43.281Z,10.3
2018-12-24T04:31:43.336Z,10.4
2018-12-24T04:32:43.248Z,10.3
2018-12-24T04:33:43.228Z,10.3
2018-12-24T04:34:42.961Z,10.4
2018-12-24T04:35:43.192Z,10.49
2018-12-24T04:36:42.923Z,10.3
2018-12-24T04:37:43.150Z,10.49
2018-12-24T04:38:43.133Z,10.11
2018-12-24T04:39:43.116Z,10.68
2018-12-24T04:40:43.098Z,10.49
2018-12-24T04:41:43.084Z,10.59
2018-12-24T04:42:43.087Z,10.59
2018-12-24T04:43:42.796Z,10.97
2018-12-24T04:44:43.023Z,11.44
2018-12-24T04:45:43.006Z,11.35
2018-12-24T04:46:42.991Z,11.72
2018-12-24T04:47:42.970Z,12.01
2018-12-24T04:48:42.954Z,12.38
2018-12-24T04:49:42.935Z,12.38
2018-12-24T04:50:42.919Z,12.38
2018-12-24T04:51:42.648Z,12.48
2018-12-24T04:52:42.878Z,12.19
2018-12-24T04:53:42.867Z,12.38
2018-12-24T04:54:42.840Z,12.66
2018-12-24T04:55:42.825Z,13.14
2018-12-24T04:56:42.813Z,13.33
2018-12-24T04:57:42.788Z,13.42
2018-12-24T04:58:42.768Z,12.95
2018-12-24T04:59:42.751Z,13.04
2018-12-24T05:00:42.739Z,13.52
2018-12-24T05:01:42.711Z,13.71
2018-12-24T05:02:42.696Z,13.61
2018-12-24T05:03:42.676Z,13.33
2018-12-24T05:04:42.408Z,12.85
2018-12-24T05:05:42.641Z,12.76
2018-12-24T05:06:42.619Z,12.38
2018-12-24T05:07:42.606Z,12.1
2018-12-24T05:08:42.583Z,12.38
2018-12-24T05:09:42.563Z,11.91
2018-12-24T05:10:42.546Z,12.01
2018-12-24T05:11:42.526Z,11.82
2018-12-24T05:12:42.263Z,12.1
2018-12-24T05:13:43.471Z,11.91
2018-12-24T05:14:42.472Z,12.29
2018-12-24T05:15:42.454Z,12.19
2018-12-24T05:16:42.190Z,12.1
2018-12-24T05:17:42.419Z,12.29
2018-12-24T05:18:42.401Z,12.1
2018-12-24T05:19:42.384Z,12.19
2018-12-24T05:20:42.363Z,12.1
2018-12-24T05:21:42.341Z,12.19
2018-12-24T05:22:42.330Z,12.19
2018-12-24T05:23:42.307Z,12.38
2018-12-24T05:24:42.285Z,12.19
2018-12-24T05:25:42.267Z,12.19
2018-12-24T05:26:42.248Z,12.01
2018-12-24T05:27:42.100Z,11.54
2018-12-24T05:28:42.213Z,11.54
2018-12-24T05:29:42.195Z,11.44
2018-12-24T05:30:42.176Z,11.25
2018-12-24T05:31:42.158Z,11.25
2018-12-24T05:32:42.139Z,11.82
2018-12-24T05:33:42.123Z,11.91
2018-12-24T05:34:42.108Z,11.91
2018-12-24T05:35:42.083Z,12.1
2018-12-24T05:36:42.065Z,11.63
2018-12-24T05:37:42.049Z,11.82
2018-12-24T05:38:42.029Z,12.1
2018-12-24T05:39:42.011Z,11.72
2018-12-24T05:40:41.989Z,12.38
2018-12-24T05:41:41.971Z,12.29
2018-12-24T05:42:41.957Z,12.29
2018-12-24T05:43:49.206Z,12.1
2018-12-24T05:44:41.915Z,11.91
2018-12-24T05:45:41.901Z,12.38
2018-12-24T05:46:41.879Z,12.1
2018-12-24T05:47:41.861Z,12.38
2018-12-24T05:48:41.842Z,12.29
2018-12-24T05:49:41.976Z,12.29
2018-12-24T05:50:41.810Z,12.29
2018-12-24T05:51:41.785Z,12.29
2018-12-24T05:52:41.769Z,12.01
2018-12-24T05:53:41.752Z,12.01
2018-12-24T05:54:41.587Z,11.82
2018-12-24T05:55:41.713Z,11.82
2018-12-24T05:56:41.694Z,11.63
2018-12-24T05:57:41.676Z,11.54
2018-12-24T05:58:41.657Z,11.72
2018-12-24T05:59:41.642Z,11.16
2018-12-24T06:00:41.617Z,10.97
2018-12-24T06:01:41.599Z,10.78
2018-12-24T06:02:41.581Z,10.97
2018-12-24T06:03:41.561Z,10.87
2018-12-24T06:04:41.542Z,10.78
2018-12-24T06:05:41.523Z,10.68
2018-12-24T06:06:41.505Z,10.59
2018-12-24T06:07:41.488Z,10.68
2018-12-24T06:08:41.467Z,10.4
2018-12-24T06:09:41.448Z,10.49
2018-12-24T06:10:41.432Z,10.4
2018-12-24T06:11:41.163Z,10.4
2018-12-24T06:12:41.143Z,10.21
2018-12-24T06:13:41.374Z,9.92
2018-12-24T06:14:41.355Z,10.02
2018-12-24T06:15:41.090Z,9.64
2018-12-24T06:16:41.318Z,9.83
2018-12-24T06:17:41.297Z,9.27
2018-12-24T06:18:41.378Z,9.45
2018-12-24T06:19:41.265Z,9.27
2018-12-24T06:20:41.241Z,8.98
2018-12-24T06:21:41.226Z,8.79
2018-12-24T06:22:41.204Z,8.6
2018-12-24T06:23:41.186Z,8.51
2018-12-24T06:24:41.168Z,8.51
2018-12-24T06:25:41.148Z,8.6
2018-12-24T06:26:41.131Z,8.41
2018-12-24T06:27:41.113Z,8.32
2018-12-24T06:28:41.093Z,8.22
2018-12-24T06:29:41.074Z,8.22
2018-12-24T06:30:41.057Z,8.13
2018-12-24T06:31:41.038Z,7.94
2018-12-24T06:32:41.017Z,8.13
2018-12-24T06:33:41.001Z,8.22
2018-12-24T06:34:40.979Z,7.75
2018-12-24T06:35:40.966Z,7.75
2018-12-24T06:36:40.945Z,7.46
2018-12-24T06:37:40.926Z,7.56
2018-12-24T06:38:40.658Z,7.46
2018-12-24T06:39:40.886Z,7.18
2018-12-24T06:40:40.618Z,6.99
2018-12-24T06:41:40.847Z,7.18
2018-12-24T06:42:40.830Z,6.9
2018-12-24T06:43:40.563Z,6.52
2018-12-24T06:44:40.794Z,6.24
2018-12-24T06:45:40.774Z,6.52
2018-12-24T06:46:40.762Z,6.33
2018-12-24T06:47:40.736Z,6.14
2018-12-24T06:48:40.715Z,6.14
2018-12-24T06:49:40.700Z,5.86
2018-12-24T06:50:40.435Z,5.67
2018-12-24T06:51:40.664Z,5.86
2018-12-24T06:52:40.646Z,5.48
2018-12-24T06:53:40.625Z,5.58
2018-12-24T06:54:40.606Z,5.29
2018-12-24T06:55:40.589Z,5.39
2018-12-24T06:56:40.567Z,5.2
2018-12-24T06:57:40.547Z,5.01
2018-12-24T06:58:40.531Z,4.91
2018-12-24T06:59:40.515Z,4.91
2018-12-24T07:00:40.492Z,4.72
2018-12-24T07:01:40.482Z,4.44
2018-12-24T07:02:40.455Z,4.25
2018-12-24T07:03:40.437Z,4.35
2018-12-24T07:04:40.425Z,3.97
2018-12-24T07:05:40.399Z,3.78
2018-12-24T07:06:40.381Z,3.88
2018-12-24T07:07:40.365Z,3.59
2018-12-24T07:08:40.344Z,3.5
2018-12-24T07:09:40.327Z,3.5
2018-12-24T07:10:40.306Z,3.5
2018-12-24T07:11:40.287Z,3.59
2018-12-24T07:12:40.269Z,3.21
2018-12-24T07:13:40.252Z,3.4
2018-12-24T07:14:40.234Z,3.59
2018-12-24T07:15:40.213Z,3.31
2018-12-24T07:16:40.194Z,3.21
2018-12-24T07:17:40.184Z,3.02
2018-12-24T07:18:40.170Z,2.64
2018-12-24T07:19:40.138Z,2.45
2018-12-24T07:20:40.121Z,2.55
2018-12-24T07:21:40.107Z,2.36
2018-12-24T07:22:40.085Z,2.36
2018-12-24T07:23:40.065Z,2.36
2018-12-24T07:24:39.897Z,2.36
2018-12-24T07:25:40.027Z,2.55
2018-12-24T07:26:40.012Z,2.55
2018-12-24T07:27:39.994Z,2.64
2018-12-24T07:28:39.973Z,2.45
2018-12-24T07:29:39.958Z,2.45
2018-12-24T07:30:39.938Z,2.74
2018-12-24T07:31:39.917Z,2.83
2018-12-24T07:32:39.899Z,3.02
2018-12-24T07:33:39.879Z,3.21
2018-12-24T07:34:39.861Z,3.02
2018-12-24T07:35:39.841Z,3.31
2018-12-24T07:36:39.822Z,3.21
2018-12-24T07:37:39.805Z,3.21
2018-12-24T07:38:39.866Z,3.5
2018-12-24T07:39:39.767Z,3.78
2018-12-24T07:40:39.750Z,3.59
2018-12-24T07:41:39.730Z,3.88
2018-12-24T07:42:39.466Z,3.59
2018-12-24T07:43:39.692Z,3.88
2018-12-24T07:44:39.675Z,3.78
2018-12-24T07:45:39.656Z,3.69
2018-12-24T07:46:40.897Z,3.88
2018-12-24T07:47:39.713Z,3.97
2018-12-24T07:48:39.612Z,3.88
2018-12-24T07:49:39.586Z,3.31
2018-12-24T07:50:39.565Z,3.21
2018-12-24T07:51:39.546Z,3.59
2018-12-24T07:52:39.527Z,3.5
2018-12-24T07:53:39.507Z,3.59
2018-12-24T07:54:39.489Z,3.4
2018-12-24T07:55:39.468Z,3.12
2018-12-24T07:56:39.462Z,3.21
2018-12-24T07:57:39.430Z,3.21
2018-12-24T07:58:39.585Z,3.12
2018-12-24T07:59:39.394Z,3.02
2018-12-24T08:00:39.380Z,2.74
2018-12-24T08:01:39.358Z,3.12
2018-12-24T08:02:39.339Z,2.55
2018-12-24T08:03:39.320Z,2.74
2018-12-24T08:04:39.302Z,2.26
2018-12-24T08:05:39.283Z,2.17
2018-12-24T08:06:39.264Z,1.89
2018-12-24T08:07:39.247Z,1.89
2018-12-24T08:08:39.226Z,1.89
2018-12-24T08:09:39.207Z,1.7
2018-12-24T08:10:39.189Z,1.51
2018-12-24T08:11:39.171Z,1.61
2018-12-24T08:12:39.152Z,1.23
2018-12-24T08:13:39.135Z,1.23
2018-12-24T08:14:38.867Z,1.13
2018-12-24T08:15:39.102Z,1.23
2018-12-24T08:16:39.078Z,1.23
2018-12-24T08:17:39.061Z,1.04
2018-12-24T08:18:39.041Z,0.94
2018-12-24T08:19:39.022Z,0.75
2018-12-24T08:20:39.007Z,0.66
2018-12-24T08:21:38.989Z,0.56
2018-12-24T08:22:38.966Z,0.37
2018-12-24T08:23:38.948Z,0.28
2018-12-24T08:24:38.928Z,0.47
2018-12-24T08:25:38.661Z,0.18
2018-12-24T08:26:38.891Z,0.09
2018-12-24T08:27:38.872Z,0.09
2018-12-24T08:28:38.609Z,0
2018-12-24T08:30:49.700Z,0
2018-12-24T08:31:24.015Z,0
2018-12-24T08:32:23.984Z,0
2018-12-24T08:33:23.966Z,0
2018-12-24T08:34:23.944Z,0
2018-12-24T08:35:23.925Z,0
2018-12-24T08:36:24.207Z,0
2018-12-24T08:37:23.888Z,0
2018-12-24T08:38:23.869Z,0
2018-12-24T08:39:23.856Z,0
2018-12-24T08:40:23.833Z,0
2018-12-24T08:41:24.063Z,0
2018-12-24T08:42:23.812Z,0
2018-12-24T08:43:23.776Z,0
2018-12-24T08:44:23.527Z,0
2018-12-24T08:45:23.865Z,0
2018-12-24T08:46:23.718Z,0
2018-12-24T08:47:23.706Z,0
2018-12-24T08:48:23.690Z,0
2018-12-24T08:49:23.666Z,0
2018-12-24T08:50:23.648Z,0
2018-12-24T08:51:23.628Z,0
2018-12-24T08:52:23.613Z,0
2018-12-24T08:53:23.594Z,0
2018-12-24T08:54:23.576Z,0
2018-12-24T08:55:23.559Z,0
2018-12-24T08:56:23.541Z,0
2018-12-24T08:57:23.520Z,0
2018-12-24T08:58:23.504Z,0
2018-12-24T08:59:23.484Z,0
2018-12-24T09:00:23.466Z,0
2018-12-24T09:01:23.447Z,0
2018-12-24T09:02:23.427Z,0
2018-12-24T09:03:23.414Z,0.09
2018-12-24T09:04:23.401Z,0.09
2018-12-24T09:05:23.375Z,0.38
2018-12-24T09:06:23.405Z,0.47
2018-12-24T09:07:23.339Z,0.76
2018-12-24T09:08:23.317Z,1.51
2018-12-24T09:09:23.302Z,1.32
2018-12-24T09:10:23.392Z,1.42
2018-12-24T09:11:23.261Z,1.42
2018-12-24T09:12:23.245Z,1.7
2018-12-24T09:13:23.230Z,1.42
2018-12-24T09:14:22.961Z,1.42
2018-12-24T09:15:22.943Z,1.89
2018-12-24T09:16:23.175Z,2.17
2018-12-24T09:17:23.153Z,2.65
2018-12-24T09:18:23.138Z,3.03
2018-12-24T09:19:23.118Z,3.69
2018-12-24T09:20:23.101Z,3.97
2018-12-24T09:21:23.082Z,4.25
2018-12-24T09:22:23.064Z,3.69
2018-12-24T09:23:23.045Z,3.5
2018-12-24T09:24:23.032Z,2.93
2018-12-24T09:25:23.008Z,2.84
2018-12-24T09:26:22.987Z,2.55
2018-12-24T09:27:23.083Z,2.36
2018-12-24T09:28:22.954Z,2.65
2018-12-24T09:29:22.937Z,2.55
2018-12-24T09:30:22.920Z,3.12
2018-12-24T09:31:22.898Z,3.03
2018-12-24T09:32:22.634Z,3.12
2018-12-24T09:33:22.887Z,3.31
2018-12-24T09:34:22.846Z,3.59
2018-12-24T09:35:22.828Z,4.06
2018-12-24T09:36:22.809Z,3.97
2018-12-24T09:37:22.788Z,4.25
2018-12-24T09:38:22.527Z,4.92
2018-12-24T09:39:22.754Z,5.68
2018-12-24T09:40:22.744Z,6.52
2018-12-24T09:41:22.715Z,7.09
2018-12-24T09:42:22.697Z,7.47
2018-12-24T09:43:22.680Z,7.19
2018-12-24T09:44:22.417Z,7.19
2018-12-24T09:45:22.642Z,7.66
2018-12-24T09:46:22.624Z,7.38
2018-12-24T09:47:22.611Z,7.85
2018-12-24T09:48:22.595Z,8.23
2018-12-24T09:49:22.571Z,8.61
2018-12-24T09:50:22.557Z,8.7
2018-12-24T09:51:22.534Z,8.7
2018-12-24T09:52:22.515Z,9.08
2018-12-24T09:53:22.495Z,9.08
2018-12-24T09:54:22.237Z,9.08
2018-12-24T09:55:22.212Z,9.46
2018-12-24T09:56:22.449Z,9.65
2018-12-24T09:57:22.425Z,11.54
2018-12-24T09:58:22.406Z,12.77
2018-12-24T09:59:22.387Z,13.06
2018-12-24T10:00:22.367Z,12.96
2018-12-24T10:01:22.352Z,13.53
2018-12-24T10:02:22.337Z,13.81
2018-12-24T10:03:22.316Z,13.53
2018-12-24T10:04:22.298Z,14.09
2018-12-24T10:05:22.280Z,14.28
2018-12-24T10:06:22.260Z,14.19
2018-12-24T10:07:22.243Z,14.57
2018-12-24T10:08:22.225Z,15.61
2018-12-24T10:09:22.207Z,15.33
2018-12-24T10:10:22.189Z,15.8
2018-12-24T10:11:22.175Z,16.46
2018-12-24T10:12:22.153Z,17.69
2018-12-24T10:13:22.137Z,17.79
2018-12-24T10:14:22.118Z,19.01
2018-12-24T10:15:21.851Z,21.47
2018-12-24T10:16:22.081Z,22.99
2018-12-24T10:17:22.061Z,25.82
2018-12-24T10:18:22.042Z,30.36
2018-12-24T10:19:22.027Z,31.41
2018-12-24T10:20:22.138Z,30.93
2018-12-24T10:21:21.989Z,31.03
2018-12-24T10:22:21.984Z,31.41
2018-12-24T10:23:21.956Z,31.5
2018-12-24T10:24:21.938Z,32.26
2018-12-24T10:25:21.922Z,32.07
2018-12-24T10:26:21.656Z,30.84
2018-12-24T10:27:21.883Z,29.23
2018-12-24T10:28:21.865Z,27.81
2018-12-24T10:29:21.846Z,27.91
2018-12-24T10:30:21.830Z,27.62
2018-12-24T10:31:21.813Z,28.95
2018-12-24T10:32:21.796Z,29.04
2018-12-24T10:33:21.776Z,30.08
2018-12-24T10:34:21.759Z,30.27
2018-12-24T10:35:21.740Z,31.69
2018-12-24T10:36:21.725Z,32.07
2018-12-24T10:37:21.710Z,31.98
2018-12-24T10:38:21.688Z,31.5
2018-12-24T10:39:21.672Z,31.79
2018-12-24T10:40:21.650Z,31.69
2018-12-24T10:41:21.634Z,30.74
2018-12-24T10:42:21.619Z,30.27
2018-12-24T10:43:21.598Z,29.99
2018-12-24T10:44:21.582Z,29.99
2018-12-24T10:45:21.565Z,28.95
2018-12-24T10:46:21.543Z,27.53
2018-12-24T10:47:21.528Z,27.91
2018-12-24T10:48:21.507Z,28.85
2018-12-24T10:49:21.491Z,30.08
2018-12-24T10:50:21.469Z,31.79
2018-12-24T10:51:21.455Z,33.58
2018-12-24T10:52:21.437Z,35.57
2018-12-24T10:53:21.429Z,36.14
2018-12-24T10:54:21.401Z,37.46
2018-12-24T10:55:21.389Z,37.08
2018-12-24T10:56:21.367Z,37.55
2018-12-24T10:57:21.346Z,37.46
2018-12-24T10:58:21.330Z,38.79
2018-12-24T10:59:21.314Z,41.06
2018-12-24T11:00:21.294Z,40.68
2018-12-24T11:01:21.276Z,39.64
2018-12-24T11:02:21.011Z,38.31
2018-12-24T11:03:21.252Z,37.08
2018-12-24T11:04:21.224Z,36.99
2018-12-24T11:05:21.206Z,37.08
2018-12-24T11:06:21.188Z,35.76
2018-12-24T11:07:20.923Z,37.27
2018-12-24T11:08:21.174Z,36.71
2018-12-24T11:09:21.134Z,35.47
2018-12-24T11:10:21.116Z,35.66
2018-12-24T11:11:20.849Z,34.81
2018-12-24T11:12:21.079Z,34.15
2018-12-24T11:13:21.062Z,34.06
2018-12-24T11:14:20.797Z,34.25
2018-12-24T11:15:27.552Z,35.47
2018-12-24T11:16:21.006Z,35.95
2018-12-24T11:17:20.991Z,39.36
2018-12-24T11:18:20.974Z,40.39
2018-12-24T11:19:20.957Z,41.06
2018-12-24T11:20:20.691Z,41.63
2018-12-24T11:21:21.030Z,41.06
2018-12-24T11:22:20.652Z,40.49
2018-12-24T11:23:20.883Z,39.73
2018-12-24T11:24:20.864Z,38.5
2018-12-24T11:25:20.846Z,37.08
2018-12-24T11:26:20.827Z,36.04
2018-12-24T11:27:20.816Z,35
2018-12-24T11:28:20.796Z,33.2
2018-12-24T11:29:20.777Z,31.69
2018-12-24T11:30:20.756Z,30.65
2018-12-24T11:31:20.738Z,29.04
2018-12-24T11:32:20.833Z,28.66
2018-12-24T11:33:20.713Z,27.53
2018-12-24T11:34:20.683Z,26.96
2018-12-24T11:35:20.663Z,26.49
2018-12-24T11:36:20.646Z,26.77
2018-12-24T11:37:20.626Z,27.53
2018-12-24T11:38:20.611Z,29.04
2018-12-24T11:39:20.591Z,30.46
2018-12-24T11:40:20.327Z,31.5
2018-12-24T11:41:20.556Z,33.77
2018-12-24T11:42:20.292Z,37.18
2018-12-24T11:43:20.521Z,39.36
2018-12-24T11:44:20.504Z,41.44
2018-12-24T11:45:20.487Z,42.47
2018-12-24T11:46:20.465Z,43.14
2018-12-24T11:47:20.445Z,43.12
2018-12-24T11:48:20.428Z,43.49
2018-12-24T11:49:20.506Z,45.29
2018-12-24T11:50:20.395Z,47.56
2018-12-24T11:51:20.376Z,48.5
2018-12-24T11:52:20.361Z,46.61
2018-12-24T11:53:20.338Z,45.95
2018-12-24T11:54:20.317Z,44.53
2018-12-24T11:55:20.301Z,42.74
2018-12-24T11:56:20.280Z,41.6
2018-12-24T11:57:20.264Z,44.44
2018-12-24T11:58:20.243Z,45.76
2018-12-24T11:59:19.979Z,45.67
2018-12-24T12:00:20.210Z,46.61
2018-12-24T12:01:20.201Z,46.99
2018-12-24T12:02:20.170Z,48.5
2018-12-24T12:03:19.908Z,50.49
2018-12-24T12:04:20.155Z,49.54
2018-12-24T12:05:20.118Z,49.73
2018-12-24T12:06:22.443Z,48.34
2018-12-24T12:07:20.082Z,50.99
2018-12-24T12:08:19.818Z,54.68
2018-12-24T12:09:20.045Z,54.87
2018-12-24T12:10:20.028Z,56.85
2018-12-24T12:11:20.009Z,58.65
2018-12-24T12:12:19.994Z,61.4
2018-12-24T12:13:19.973Z,62.06
2018-12-24T12:14:19.954Z,63.39
2018-12-24T12:15:19.936Z,67.83
2018-12-24T12:16:19.915Z,69.34
2018-12-24T12:17:19.898Z,67.64
2018-12-24T12:18:19.636Z,67.83
2018-12-24T12:19:19.865Z,67.36
2018-12-24T12:20:19.843Z,67.55
2018-12-24T12:21:19.825Z,75.68
2018-12-24T12:22:21.502Z,76.06
2018-12-24T12:23:19.786Z,75.31
2018-12-24T12:24:19.522Z,75.49
2018-12-24T12:25:19.775Z,75.59
2018-12-24T12:26:19.487Z,75.21
2018-12-24T12:27:19.714Z,74.74
2018-12-24T12:28:19.736Z,74.64
2018-12-24T12:29:19.679Z,74.74
2018-12-24T12:30:19.664Z,75.49
2018-12-24T12:31:19.644Z,74.17
2018-12-24T12:32:19.625Z,71.99
2018-12-24T12:33:19.607Z,71.33
2018-12-24T12:34:19.591Z,70.57
2018-12-24T12:35:19.570Z,71.99
2018-12-24T12:36:19.559Z,71.23
2018-12-24T12:37:19.536Z,69.82
2018-12-24T12:38:19.518Z,70.2
2018-12-24T12:39:19.255Z,70.57
2018-12-24T12:40:19.482Z,73.03
2018-12-24T12:41:19.475Z,77.39
2018-12-24T12:42:20.198Z,78.99
2018-12-24T12:43:19.431Z,79.09
2018-12-24T12:44:19.411Z,80.22
2018-12-24T12:45:19.392Z,79.47
2018-12-24T12:46:19.375Z,78.9
2018-12-24T12:47:19.354Z,81.26
2018-12-24T12:48:21.270Z,81.74
2018-12-24T12:49:19.075Z,84.39
2018-12-24T12:50:19.060Z,89.02
2018-12-24T12:51:19.288Z,90.91
2018-12-24T12:52:19.269Z,89.59
2018-12-24T12:53:19.251Z,88.26
2018-12-24T12:54:19.234Z,85.9
2018-12-24T12:55:18.969Z,84.86
2018-12-24T12:56:19.197Z,82.68
2018-12-24T12:57:19.182Z,81.55
2018-12-24T12:58:19.164Z,83.06
2018-12-24T12:59:19.146Z,83.34
2018-12-24T13:00:19.128Z,82.59
2018-12-24T13:01:19.154Z,81.45
2018-12-24T13:02:21.184Z,83.82
2018-12-24T13:03:19.073Z,83.25
2018-12-24T13:04:19.055Z,82.31
2018-12-24T13:05:19.037Z,80.51
2018-12-24T13:06:19.024Z,78.71
2018-12-24T13:07:19.001Z,77.2
2018-12-24T13:08:18.984Z,75.68
2018-12-24T13:09:18.971Z,75.4
2018-12-24T13:10:18.947Z,74.83
2018-12-24T13:11:18.930Z,75.4
2018-12-24T13:12:18.914Z,75.87
2018-12-24T13:13:18.898Z,75.87